Flinterborg — PHPH — position and weather

sailwx.info

Track history (hours):
 
Tides and Currents Weather Stations Pressure Air Temp Water Temp Dewpoint Dewpoint Depression Visibility Wind Speed Wind Dir Waves Ship Positions

Flinterborg

Last reported at 2018-Apr-27 02:29 UTC. Time now 2018-Apr-27 02:46 UTC.
Position N 54°37' W 005°55'.

Length 111 m; draft 6.1 m.

Type: Ship. MMSI: 245433000.

Date/timePositionNaut miles runAvg speedWind from/ knotsBaromVisibWave heightAir tempDewpointWater temp
2018-Apr-27 02:29N 54°37' W 005°55'0 0.0
2018-Apr-27 01:59N 54°37' W 005°55'0 0.0
2018-Apr-27 01:29N 54°37' W 005°55'0 0.0
2018-Apr-27 00:58N 54°37' W 005°55'0 0.0
2018-Apr-27 00:28N 54°37' W 005°55'0 0.0
2018-Apr-26 23:58N 54°37' W 005°55'0 0.0
2018-Apr-26 23:28N 54°37' W 005°55'0 0.0
2018-Apr-26 22:58N 54°37' W 005°55'0 0.0
2018-Apr-26 22:31N 54°37' W 005°55'0 0.0
2018-Apr-26 22:00N 54°37' W 005°55'0 0.0
2018-Apr-26 21:30N 54°37' W 005°55'0 0.0
2018-Apr-26 20:57N 54°37' W 005°55'0 0.0
2018-Apr-26 20:29N 54°37' W 005°55'0 0.0
2018-Apr-26 19:59N 54°37' W 005°55'0 0.0
2018-Apr-26 19:29N 54°37' W 005°55'0 0.0
2018-Apr-26 18:59N 54°37' W 005°55'0 0.0
2018-Apr-26 18:29N 54°37' W 005°55'0 0.0
2018-Apr-26 17:59N 54°37' W 005°55'0 0.0
2018-Apr-26 17:25N 54°37' W 005°55'0 0.0
2018-Apr-26 16:58N 54°37' W 005°55'0 0.0
2018-Apr-26 16:28N 54°37' W 005°55'0 0.0
2018-Apr-26 15:58N 54°37' W 005°55'0 0.0
2018-Apr-26 15:27N 54°37' W 005°55'0 0.0
2018-Apr-26 14:57N 54°37' W 005°55'0 0.0
2018-Apr-26 14:30N 54°37' W 005°55'0 0.0
2018-Apr-26 14:00N 54°37' W 005°55'0 0.0
2018-Apr-26 13:27N 54°37' W 005°55'0 0.0
2018-Apr-26 12:59N 54°37' W 005°55'0 0.0
2018-Apr-26 12:29N 54°37' W 005°55'0 0.0
2018-Apr-26 11:59N 54°37' W 005°55'0 0.0
2018-Apr-26 11:29N 54°37' W 005°55'0 0.0
2018-Apr-26 10:58N 54°37' W 005°55'0 0.0
2018-Apr-26 10:30N 54°37' W 005°55'0 0.0
2018-Apr-26 09:58N 54°37' W 005°55'0 0.0
2018-Apr-26 09:28N 54°37' W 005°55'0 0.0
2018-Apr-26 08:58N 54°37' W 005°55'0 0.0
2018-Apr-26 08:30N 54°37' W 005°55'0 0.2
2018-Apr-26 07:58N 54°37' W 005°54'3 5.7
2018-Apr-26 07:26N 54°39' W 005°51'510.3
2018-Apr-26 06:59N 54°42' W 005°44'511.2
2018-Apr-26 06:30N 54°43' W 005°35'5 9.6
2018-Apr-26 06:00N 54°41' W 005°27'5 9.6
2018-Apr-26 05:30N 54°37' W 005°24'5 9.7
2018-Apr-26 05:00N 54°33' W 005°20'610.8
2018-Apr-26 04:28N 54°27' W 005°16'510.1
2018-Apr-26 04:00N 54°23' W 005°13'510.5
2018-Apr-26 03:30N 54°18' W 005°09'6010.0
2018-Apr-25 21:31N 53°41' W 003°48'111.1
2018-Apr-25 21:26N 53°41' W 003°47'611.0
2018-Apr-25 20:54N 53°39' W 003°38'611.5
2018-Apr-25 20:21N 53°36' W 003°28'411.3
2018-Apr-25 19:59N 53°34' W 003°22'5 9.9
2018-Apr-25 19:30N 53°32' W 003°15'4 8.4
2018-Apr-25 19:00N 53°32' W 003°08'510.8
2018-Apr-25 18:30N 53°28' W 003°03'5 9.6
2018-Apr-25 17:59N 53°23' W 002°60'4 7.7
2018-Apr-25 17:28N 53°19' W 002°57'1 1.1
2018-Apr-25 17:00N 53°19' W 002°56'3 5.9
2018-Apr-25 16:30N 53°17' W 002°52'3 6.2
2018-Apr-25 15:58N 53°18' W 002°47'3 5.8
2018-Apr-25 15:30N 53°20' W 002°45'0 0.1
2018-Apr-25 15:00N 53°20' W 002°45'0 0.0
2018-Apr-25 14:28N 53°20' W 002°45'0 0.0
2018-Apr-25 13:56N 53°20' W 002°45'0 0.0
2018-Apr-25 13:20N 53°20' W 002°45'0 0.0
2018-Apr-25 12:59N 53°20' W 002°45'0 0.0
2018-Apr-25 09:55N 53°20' W 002°45'0 0.0
2018-Apr-25 09:19N 53°20' W 002°45'0 0.0
2018-Apr-25 07:30N 53°20' W 002°45'0 0.0
2018-Apr-25 04:40N 53°20' W 002°45'0 0.0
2018-Apr-25 03:01N 53°20' W 002°45'0 0.0
2018-Apr-25 02:46N 53°20' W 002°45'0 0.0
2018-Apr-24 20:55N 53°20' W 002°45'0 0.0
2018-Apr-24 20:01N 53°20' W 002°45'0 0.0
2018-Apr-24 19:43N 53°20' W 002°45'0 0.0
2018-Apr-24 18:24N 53°20' W 002°45'0 0.0
2018-Apr-24 16:23N 53°20' W 002°45'0 0.0
2018-Apr-24 15:59N 53°20' W 002°45'0 0.0
2018-Apr-24 11:33N 53°20' W 002°45'0 0.0
2018-Apr-24 11:27N 53°20' W 002°45'0 0.0
2018-Apr-24 07:40N 53°20' W 002°45'0 0.0
2018-Apr-24 07:19N 53°20' W 002°45'0 0.0
2018-Apr-23 21:33N 53°20' W 002°45'0 0.0
2018-Apr-23 21:09N 53°20' W 002°45'0 0.0
2018-Apr-23 18:14N 53°20' W 002°45'0 0.0
2018-Apr-23 17:43N 53°20' W 002°45'0 0.0
2018-Apr-23 17:28N 53°20' W 002°45'0 0.0
2018-Apr-23 14:18N 53°20' W 002°45'0 0.0
2018-Apr-23 12:53N 53°20' W 002°45'0 0.0
2018-Apr-23 12:23N 53°20' W 002°45'0 0.0
2018-Apr-23 08:39N 53°20' W 002°45'0 0.0
2018-Apr-23 08:18N 53°20' W 002°45'0 0.0
2018-Apr-23 05:14N 53°20' W 002°45'0 0.0
2018-Apr-23 03:19N 53°20' W 002°45'0 0.0
2018-Apr-23 02:07N 53°20' W 002°45'0 0.0
2018-Apr-23 01:42N 53°20' W 002°45'0 0.0
2018-Apr-23 01:24N 53°20' W 002°45'0 0.0
2018-Apr-22 23:54N 53°20' W 002°45'0 0.0
2018-Apr-22 21:53N 53°20' W 002°45'0 0.0
2018-Apr-22 18:44N 53°20' W 002°45'0 0.0
2018-Apr-22 18:22N 53°20' W 002°45'0 0.0
2018-Apr-22 17:57N 53°20' W 002°45'0 0.0
2018-Apr-22 17:30N 53°20' W 002°45'0 0.0
2018-Apr-22 16:49N 53°20' W 002°45'0 0.0
2018-Apr-22 16:30N 53°20' W 002°45'0 0.0
2018-Apr-22 15:57N 53°20' W 002°45'0 0.0
2018-Apr-22 15:30N 53°20' W 002°45'0 0.0
2018-Apr-22 15:00N 53°20' W 002°45'0 0.0
2018-Apr-22 14:29N 53°20' W 002°45'0 0.0
2018-Apr-22 13:58N 53°20' W 002°45'0 0.0
2018-Apr-22 13:30N 53°20' W 002°45'0 0.0
2018-Apr-22 12:51N 53°20' W 002°45'0 0.0
2018-Apr-22 12:30N 53°20' W 002°45'0 0.0
2018-Apr-22 11:58N 53°20' W 002°45'0 0.0
2018-Apr-22 11:26N 53°20' W 002°45'0 0.0
2018-Apr-22 10:59N 53°20' W 002°45'0 0.0
2018-Apr-22 10:30N 53°20' W 002°45'0 0.0
2018-Apr-22 10:00N 53°20' W 002°45'0 0.0
2018-Apr-22 09:22N 53°20' W 002°45'0 0.0
2018-Apr-22 08:57N 53°20' W 002°45'0 0.0
2018-Apr-22 08:28N 53°20' W 002°45'0 0.0
2018-Apr-22 08:00N 53°20' W 002°45'0 0.0
2018-Apr-22 07:30N 53°20' W 002°45'0 0.0
2018-Apr-22 06:53N 53°20' W 002°45'0 0.0
2018-Apr-22 06:30N 53°20' W 002°45'0 0.0
2018-Apr-22 06:00N 53°20' W 002°45'1 1.2
2018-Apr-22 05:30N 53°20' W 002°46'3 5.0
2018-Apr-22 05:00N 53°18' W 002°48'3 4.8
2018-Apr-22 04:24N 53°17' W 002°53'2 5.1
2018-Apr-22 04:00N 53°18' W 002°55'1 2.5
2018-Apr-22 03:26N 53°19' W 002°57'1 2.8
2018-Apr-22 03:00N 53°21' W 002°58'3 6.6
2018-Apr-22 02:30N 53°23' W 003°00'4 8.3
2018-Apr-22 01:59N 53°27' W 003°03'510.9
2018-Apr-22 01:30N 53°32' W 003°08'510.5
2018-Apr-22 01:00N 53°31' W 003°17'3 7.1
2018-Apr-22 00:30N 53°31' W 003°23'3 4.0
2018-Apr-21 23:48N 53°28' W 003°25'0 0.1
2018-Apr-21 23:30N 53°28' W 003°25'0 0.0
2018-Apr-21 23:00N 53°28' W 003°25'0 0.1
2018-Apr-21 21:35N 53°28' W 003°26'0 0.0
2018-Apr-21 13:26N 53°28' W 003°25'0 0.0
2018-Apr-21 12:01N 53°28' W 003°25'0 0.0
2018-Apr-21 11:37N 53°28' W 003°25'0 0.0
2018-Apr-21 10:46N 53°28' W 003°25'0 0.0
2018-Apr-21 10:19N 53°28' W 003°25'0 0.2
2018-Apr-21 09:48N 53°28' W 003°26'0 0.1
2018-Apr-21 09:24N 53°28' W 003°26'0 0.1
2018-Apr-21 08:54N 53°28' W 003°26'0 0.0
2018-Apr-21 08:12N 53°28' W 003°26'0 0.0
2018-Apr-21 07:47N 53°28' W 003°26'0 0.0
2018-Apr-21 06:38N 53°28' W 003°26'0 0.2
2018-Apr-21 06:29N 53°28' W 003°26'0 0.0
2018-Apr-21 03:00N 53°28' W 003°26'0 0.0
2018-Apr-20 23:26N 53°28' W 003°25'0 0.0
2018-Apr-20 22:56N 53°28' W 003°25'0 0.0
2018-Apr-20 22:13N 53°28' W 003°26'0 0.0
2018-Apr-20 21:58N 53°28' W 003°26'0 0.1
2018-Apr-20 21:25N 53°28' W 003°26'0 0.0
2018-Apr-20 15:31N 53°28' W 003°26'0 0.0
2018-Apr-20 15:16N 53°28' W 003°26'0 0.1
2018-Apr-20 13:18N 53°28' W 003°25'0 0.0
2018-Apr-20 12:57N 53°28' W 003°25'0 0.0
2018-Apr-20 12:15N 53°28' W 003°25'0 0.0
2018-Apr-20 12:00N 53°28' W 003°25'0 0.0
2018-Apr-20 08:53N 53°28' W 003°26'0 0.1
2018-Apr-20 08:19N 53°28' W 003°26'0 0.0
2018-Apr-20 07:04N 53°28' W 003°26'0 0.4
2018-Apr-20 07:00N 53°28' W 003°26'1 2.5
2018-Apr-20 06:29N 53°29' W 003°28'3 6.0
2018-Apr-20 05:57N 53°31' W 003°32'4 7.1
2018-Apr-20 05:27N 53°31' W 003°38'3 6.7
2018-Apr-20 05:00N 53°31' W 003°43'4 7.2
2018-Apr-20 04:29N 53°31' W 003°50'143 7.8
2018-Apr-19 10:08N 51°30' W 005°57'210.7
2018-Apr-19 09:55N 51°28' W 005°58'4 9.4
2018-Apr-19 09:30N 51°24' W 005°60'  
Track history (hours):
 
Tides and Currents Weather Stations Pressure Air Temp Water Temp Dewpoint Dewpoint Depression Visibility Wind Speed Wind Dir Waves Ship Positions

Flinterborg

Last reported at 2018-Apr-27 02:29 UTC. Time now 2018-Apr-27 02:46 UTC.
Position N 54°37' W 005°55'.

Length 111 m; draft 6.1 m.

Type: Ship. MMSI: 245433000.

Date/timePositionNaut miles runAvg speedWind from/ knotsBaromVisibWave heightAir tempDewpointWater temp
2018-Apr-27 02:29N 54°37' W 005°55'0 0.0
2018-Apr-27 01:59N 54°37' W 005°55'0 0.0
2018-Apr-27 01:29N 54°37' W 005°55'0 0.0
2018-Apr-27 00:58N 54°37' W 005°55'0 0.0
2018-Apr-27 00:28N 54°37' W 005°55'0 0.0
2018-Apr-26 23:58N 54°37' W 005°55'0 0.0
2018-Apr-26 23:28N 54°37' W 005°55'0 0.0
2018-Apr-26 22:58N 54°37' W 005°55'0 0.0
2018-Apr-26 22:31N 54°37' W 005°55'0 0.0
2018-Apr-26 22:00N 54°37' W 005°55'0 0.0
2018-Apr-26 21:30N 54°37' W 005°55'0 0.0
2018-Apr-26 20:57N 54°37' W 005°55'0 0.0
2018-Apr-26 20:29N 54°37' W 005°55'0 0.0
2018-Apr-26 19:59N 54°37' W 005°55'0 0.0
2018-Apr-26 19:29N 54°37' W 005°55'0 0.0
2018-Apr-26 18:59N 54°37' W 005°55'0 0.0
2018-Apr-26 18:29N 54°37' W 005°55'0 0.0
2018-Apr-26 17:59N 54°37' W 005°55'0 0.0
2018-Apr-26 17:25N 54°37' W 005°55'0 0.0
2018-Apr-26 16:58N 54°37' W 005°55'0 0.0
2018-Apr-26 16:28N 54°37' W 005°55'0 0.0
2018-Apr-26 15:58N 54°37' W 005°55'0 0.0
2018-Apr-26 15:27N 54°37' W 005°55'0 0.0
2018-Apr-26 14:57N 54°37' W 005°55'0 0.0
2018-Apr-26 14:30N 54°37' W 005°55'0 0.0
2018-Apr-26 14:00N 54°37' W 005°55'0 0.0
2018-Apr-26 13:27N 54°37' W 005°55'0 0.0
2018-Apr-26 12:59N 54°37' W 005°55'0 0.0
2018-Apr-26 12:29N 54°37' W 005°55'0 0.0
2018-Apr-26 11:59N 54°37' W 005°55'0 0.0
2018-Apr-26 11:29N 54°37' W 005°55'0 0.0
2018-Apr-26 10:58N 54°37' W 005°55'0 0.0
2018-Apr-26 10:30N 54°37' W 005°55'0 0.0
2018-Apr-26 09:58N 54°37' W 005°55'0 0.0
2018-Apr-26 09:28N 54°37' W 005°55'0 0.0
2018-Apr-26 08:58N 54°37' W 005°55'0 0.0
2018-Apr-26 08:30N 54°37' W 005°55'0 0.2
2018-Apr-26 07:58N 54°37' W 005°54'3 5.7
2018-Apr-26 07:26N 54°39' W 005°51'510.3
2018-Apr-26 06:59N 54°42' W 005°44'511.2
2018-Apr-26 06:30N 54°43' W 005°35'5 9.6
2018-Apr-26 06:00N 54°41' W 005°27'5 9.6
2018-Apr-26 05:30N 54°37' W 005°24'5 9.7
2018-Apr-26 05:00N 54°33' W 005°20'610.8
2018-Apr-26 04:28N 54°27' W 005°16'510.1
2018-Apr-26 04:00N 54°23' W 005°13'510.5
2018-Apr-26 03:30N 54°18' W 005°09'6010.0
2018-Apr-25 21:31N 53°41' W 003°48'111.1
2018-Apr-25 21:26N 53°41' W 003°47'611.0
2018-Apr-25 20:54N 53°39' W 003°38'611.5
2018-Apr-25 20:21N 53°36' W 003°28'411.3
2018-Apr-25 19:59N 53°34' W 003°22'5 9.9
2018-Apr-25 19:30N 53°32' W 003°15'4 8.4
2018-Apr-25 19:00N 53°32' W 003°08'510.8
2018-Apr-25 18:30N 53°28' W 003°03'5 9.6
2018-Apr-25 17:59N 53°23' W 002°60'4 7.7
2018-Apr-25 17:28N 53°19' W 002°57'1 1.1
2018-Apr-25 17:00N 53°19' W 002°56'3 5.9
2018-Apr-25 16:30N 53°17' W 002°52'3 6.2
2018-Apr-25 15:58N 53°18' W 002°47'3 5.8
2018-Apr-25 15:30N 53°20' W 002°45'0 0.1
2018-Apr-25 15:00N 53°20' W 002°45'0 0.0
2018-Apr-25 14:28N 53°20' W 002°45'0 0.0
2018-Apr-25 13:56N 53°20' W 002°45'0 0.0
2018-Apr-25 13:20N 53°20' W 002°45'0 0.0
2018-Apr-25 12:59N 53°20' W 002°45'0 0.0
2018-Apr-25 09:55N 53°20' W 002°45'0 0.0
2018-Apr-25 09:19N 53°20' W 002°45'0 0.0
2018-Apr-25 07:30N 53°20' W 002°45'0 0.0
2018-Apr-25 04:40N 53°20' W 002°45'0 0.0
2018-Apr-25 03:01N 53°20' W 002°45'0 0.0
2018-Apr-25 02:46N 53°20' W 002°45'0 0.0
2018-Apr-24 20:55N 53°20' W 002°45'0 0.0
2018-Apr-24 20:01N 53°20' W 002°45'0 0.0
2018-Apr-24 19:43N 53°20' W 002°45'0 0.0
2018-Apr-24 18:24N 53°20' W 002°45'0 0.0
2018-Apr-24 16:23N 53°20' W 002°45'0 0.0
2018-Apr-24 15:59N 53°20' W 002°45'0 0.0
2018-Apr-24 11:33N 53°20' W 002°45'0 0.0
2018-Apr-24 11:27N 53°20' W 002°45'0 0.0
2018-Apr-24 07:40N 53°20' W 002°45'0 0.0
2018-Apr-24 07:19N 53°20' W 002°45'0 0.0
2018-Apr-23 21:33N 53°20' W 002°45'0 0.0
2018-Apr-23 21:09N 53°20' W 002°45'0 0.0
2018-Apr-23 18:14N 53°20' W 002°45'0 0.0
2018-Apr-23 17:43N 53°20' W 002°45'0 0.0
2018-Apr-23 17:28N 53°20' W 002°45'0 0.0
2018-Apr-23 14:18N 53°20' W 002°45'0 0.0
2018-Apr-23 12:53N 53°20' W 002°45'0 0.0
2018-Apr-23 12:23N 53°20' W 002°45'0 0.0
2018-Apr-23 08:39N 53°20' W 002°45'0 0.0
2018-Apr-23 08:18N 53°20' W 002°45'0 0.0
2018-Apr-23 05:14N 53°20' W 002°45'0 0.0
2018-Apr-23 03:19N 53°20' W 002°45'0 0.0
2018-Apr-23 02:07N 53°20' W 002°45'0 0.0
2018-Apr-23 01:42N 53°20' W 002°45'0 0.0
2018-Apr-23 01:24N 53°20' W 002°45'0 0.0
2018-Apr-22 23:54N 53°20' W 002°45'0 0.0
2018-Apr-22 21:53N 53°20' W 002°45'0 0.0
2018-Apr-22 18:44N 53°20' W 002°45'0 0.0
2018-Apr-22 18:22N 53°20' W 002°45'0 0.0
2018-Apr-22 17:57N 53°20' W 002°45'0 0.0
2018-Apr-22 17:30N 53°20' W 002°45'0 0.0
2018-Apr-22 16:49N 53°20' W 002°45'0 0.0
2018-Apr-22 16:30N 53°20' W 002°45'0 0.0
2018-Apr-22 15:57N 53°20' W 002°45'0 0.0
2018-Apr-22 15:30N 53°20' W 002°45'0 0.0
2018-Apr-22 15:00N 53°20' W 002°45'0 0.0
2018-Apr-22 14:29N 53°20' W 002°45'0 0.0
2018-Apr-22 13:58N 53°20' W 002°45'0 0.0
2018-Apr-22 13:30N 53°20' W 002°45'0 0.0
2018-Apr-22 12:51N 53°20' W 002°45'0 0.0
2018-Apr-22 12:30N 53°20' W 002°45'0 0.0
2018-Apr-22 11:58N 53°20' W 002°45'0 0.0
2018-Apr-22 11:26N 53°20' W 002°45'0 0.0
2018-Apr-22 10:59N 53°20' W 002°45'0 0.0
2018-Apr-22 10:30N 53°20' W 002°45'0 0.0
2018-Apr-22 10:00N 53°20' W 002°45'0 0.0
2018-Apr-22 09:22N 53°20' W 002°45'0 0.0
2018-Apr-22 08:57N 53°20' W 002°45'0 0.0
2018-Apr-22 08:28N 53°20' W 002°45'0 0.0
2018-Apr-22 08:00N 53°20' W 002°45'0 0.0
2018-Apr-22 07:30N 53°20' W 002°45'0 0.0
2018-Apr-22 06:53N 53°20' W 002°45'0 0.0
2018-Apr-22 06:30N 53°20' W 002°45'0 0.0
2018-Apr-22 06:00N 53°20' W 002°45'1 1.2
2018-Apr-22 05:30N 53°20' W 002°46'3 5.0
2018-Apr-22 05:00N 53°18' W 002°48'3 4.8
2018-Apr-22 04:24N 53°17' W 002°53'2 5.1
2018-Apr-22 04:00N 53°18' W 002°55'1 2.5
2018-Apr-22 03:26N 53°19' W 002°57'1 2.8
2018-Apr-22 03:00N 53°21' W 002°58'3 6.6
2018-Apr-22 02:30N 53°23' W 003°00'4 8.3
2018-Apr-22 01:59N 53°27' W 003°03'510.9
2018-Apr-22 01:30N 53°32' W 003°08'510.5
2018-Apr-22 01:00N 53°31' W 003°17'3 7.1
2018-Apr-22 00:30N 53°31' W 003°23'3 4.0
2018-Apr-21 23:48N 53°28' W 003°25'0 0.1
2018-Apr-21 23:30N 53°28' W 003°25'0 0.0
2018-Apr-21 23:00N 53°28' W 003°25'0 0.1
2018-Apr-21 21:35N 53°28' W 003°26'0 0.0
2018-Apr-21 13:26N 53°28' W 003°25'0 0.0
2018-Apr-21 12:01N 53°28' W 003°25'0 0.0
2018-Apr-21 11:37N 53°28' W 003°25'0 0.0
2018-Apr-21 10:46N 53°28' W 003°25'0 0.0
2018-Apr-21 10:19N 53°28' W 003°25'0 0.2
2018-Apr-21 09:48N 53°28' W 003°26'0 0.1
2018-Apr-21 09:24N 53°28' W 003°26'0 0.1
2018-Apr-21 08:54N 53°28' W 003°26'0 0.0
2018-Apr-21 08:12N 53°28' W 003°26'0 0.0
2018-Apr-21 07:47N 53°28' W 003°26'0 0.0
2018-Apr-21 06:38N 53°28' W 003°26'0 0.2
2018-Apr-21 06:29N 53°28' W 003°26'0 0.0
2018-Apr-21 03:00N 53°28' W 003°26'0 0.0
2018-Apr-20 23:26N 53°28' W 003°25'0 0.0
2018-Apr-20 22:56N 53°28' W 003°25'0 0.0
2018-Apr-20 22:13N 53°28' W 003°26'0 0.0
2018-Apr-20 21:58N 53°28' W 003°26'0 0.1
2018-Apr-20 21:25N 53°28' W 003°26'0 0.0
2018-Apr-20 15:31N 53°28' W 003°26'0 0.0
2018-Apr-20 15:16N 53°28' W 003°26'0 0.1
2018-Apr-20 13:18N 53°28' W 003°25'0 0.0
2018-Apr-20 12:57N 53°28' W 003°25'0 0.0
2018-Apr-20 12:15N 53°28' W 003°25'0 0.0
2018-Apr-20 12:00N 53°28' W 003°25'0 0.0
2018-Apr-20 08:53N 53°28' W 003°26'0 0.1
2018-Apr-20 08:19N 53°28' W 003°26'0 0.0
2018-Apr-20 07:04N 53°28' W 003°26'0 0.4
2018-Apr-20 07:00N 53°28' W 003°26'1 2.5
2018-Apr-20 06:29N 53°29' W 003°28'3 6.0
2018-Apr-20 05:57N 53°31' W 003°32'4 7.1
2018-Apr-20 05:27N 53°31' W 003°38'3 6.7
2018-Apr-20 05:00N 53°31' W 003°43'4 7.2
2018-Apr-20 04:29N 53°31' W 003°50'143 7.8
2018-Apr-19 10:08N 51°30' W 005°57'210.7
2018-Apr-19 09:55N 51°28' W 005°58'4 9.4
2018-Apr-19 09:30N 51°24' W 005°60'  

Dump ship's entire track history